createdAt,value
2023-02-14T00:00:22.200Z,100802.00
2023-02-14T00:02:52.372Z,100808.00
2023-02-14T00:05:21.050Z,100805.00
2023-02-14T00:07:49.741Z,100796.00
2023-02-14T00:10:19.154Z,100818.00
2023-02-14T00:12:47.718Z,100823.00
2023-02-14T00:15:25.154Z,100814.00
2023-02-14T00:17:59.764Z,100831.00
2023-02-14T00:20:29.461Z,100823.00
2023-02-14T00:22:58.215Z,100827.00
2023-02-14T00:25:26.837Z,100848.00
2023-02-14T00:27:55.739Z,100847.00
2023-02-14T00:30:24.865Z,100844.00
2023-02-14T00:32:54.933Z,100847.00
2023-02-14T00:35:23.565Z,100861.00
2023-02-14T00:37:52.167Z,100839.00
2023-02-14T00:40:21.414Z,100879.00
2023-02-14T00:42:50.036Z,100912.00
2023-02-14T00:45:20.525Z,100881.00
2023-02-14T00:47:49.180Z,100875.00
2023-02-14T00:50:19.434Z,100869.00
2023-02-14T00:52:48.038Z,100890.00
2023-02-14T00:55:16.780Z,100863.00
2023-02-14T00:57:45.418Z,100907.00
2023-02-14T01:00:15.976Z,100903.00
2023-02-14T01:02:44.617Z,100911.00
2023-02-14T01:05:13.295Z,100921.00
2023-02-14T01:07:43.314Z,100897.00
2023-02-14T01:10:13.490Z,100941.00
2023-02-14T01:12:42.196Z,100952.00
2023-02-14T01:15:11.454Z,100923.00
2023-02-14T01:17:40.104Z,100916.00
2023-02-14T01:20:11.825Z,100942.00
2023-02-14T01:22:42.160Z,100983.00
2023-02-14T01:25:11.138Z,100958.00
2023-02-14T01:27:41.154Z,100955.00
2023-02-14T01:30:11.633Z,100929.00
2023-02-14T01:32:40.359Z,100963.00
2023-02-14T01:35:09.757Z,100946.00
2023-02-14T01:37:38.970Z,100938.00
2023-02-14T01:40:11.936Z,100956.00
2023-02-14T01:42:41.363Z,100996.00
2023-02-14T01:45:19.882Z,100989.00
2023-02-14T01:47:55.093Z,100992.00
2023-02-14T01:50:29.481Z,100991.00
2023-02-14T01:53:05.112Z,100999.00
2023-02-14T01:55:40.706Z,100995.00
2023-02-14T01:58:14.426Z,101037.00
2023-02-14T02:01:00.937Z,101047.00
2023-02-14T02:03:35.770Z,101024.00
2023-02-14T02:06:11.633Z,101073.00
2023-02-14T02:08:49.389Z,101052.00
2023-02-14T02:11:19.367Z,101087.00
2023-02-14T02:13:49.453Z,101074.00
2023-02-14T02:17:19.134Z,101071.00
2023-02-14T02:20:28.711Z,101068.00
2023-02-14T02:23:53.291Z,101066.00
2023-02-14T02:27:01.071Z,101074.00
2023-02-14T02:30:34.441Z,101117.00
2023-02-14T02:33:57.722Z,101065.00
2023-02-14T02:37:09.039Z,101096.00
2023-02-14T02:40:05.920Z,101091.00
2023-02-14T02:42:46.810Z,101122.00
2023-02-14T02:45:29.979Z,101105.00
2023-02-14T02:48:11.158Z,101119.00
2023-02-14T02:51:05.078Z,101105.00
2023-02-14T02:53:45.492Z,101135.00
2023-02-14T02:56:39.639Z,101139.00
2023-02-14T02:59:18.474Z,101131.00
2023-02-14T03:02:06.560Z,101129.00
2023-02-14T03:04:56.142Z,101142.00
2023-02-14T03:07:36.058Z,101136.00
2023-02-14T03:10:16.615Z,101140.00
2023-02-14T03:13:24.093Z,101155.00
2023-02-14T03:16:13.170Z,101148.00
2023-02-14T03:19:19.620Z,101156.00
2023-02-14T03:21:58.742Z,101156.00
2023-02-14T03:24:38.431Z,101154.00
2023-02-14T03:27:18.709Z,101161.00
2023-02-14T03:29:59.563Z,101163.00
2023-02-14T03:32:40.034Z,101161.00
2023-02-14T03:35:19.720Z,101176.00
2023-02-14T03:37:56.518Z,101167.00
2023-02-14T03:40:29.955Z,101199.00
2023-02-14T03:43:06.622Z,101211.00
2023-02-14T03:45:42.421Z,101200.00
2023-02-14T03:48:15.658Z,101211.00
2023-02-14T03:50:47.676Z,101212.00
2023-02-14T03:53:23.872Z,101199.00
2023-02-14T03:56:01.304Z,101216.00
2023-02-14T03:58:38.702Z,101240.00
2023-02-14T04:01:15.581Z,101253.00
2023-02-14T04:03:45.681Z,101243.00
2023-02-14T04:06:14.981Z,101258.00
2023-02-14T04:08:43.674Z,101247.00
2023-02-14T04:11:12.485Z,101245.00
2023-02-14T04:13:42.774Z,101277.00
2023-02-14T04:16:11.582Z,101268.00
2023-02-14T04:18:57.562Z,101275.00
2023-02-14T04:21:26.238Z,101275.00
2023-02-14T04:23:54.960Z,101284.00
2023-02-14T04:26:23.618Z,101296.00
2023-02-14T04:28:53.658Z,101292.00
2023-02-14T04:31:22.511Z,101315.00
2023-02-14T04:33:51.476Z,101331.00
2023-02-14T04:36:20.072Z,101313.00
2023-02-14T04:38:48.701Z,101307.00
2023-02-14T04:41:17.362Z,101334.00
2023-02-14T04:43:45.922Z,101351.00
2023-02-14T04:46:15.970Z,101339.00
2023-02-14T04:48:44.646Z,101337.00
2023-02-14T04:51:13.290Z,101361.00
2023-02-14T04:53:41.964Z,101362.00
2023-02-14T04:56:11.126Z,101368.00
2023-02-14T04:58:40.672Z,101357.00
2023-02-14T05:01:09.369Z,101378.00
2023-02-14T05:03:39.429Z,101392.00
2023-02-14T05:06:08.260Z,101381.00
2023-02-14T05:08:36.903Z,101383.00
2023-02-14T05:11:06.052Z,101393.00
2023-02-14T05:13:34.748Z,101385.00
2023-02-14T05:16:03.716Z,101395.00
2023-02-14T05:18:32.348Z,101394.00
2023-02-14T05:21:02.502Z,101398.00
2023-02-14T05:23:31.400Z,101400.00
2023-02-14T05:26:00.097Z,101385.00
2023-02-14T05:28:28.714Z,101388.00
2023-02-14T05:30:58.909Z,101378.00
2023-02-14T05:33:28.196Z,101378.00
2023-02-14T05:35:56.760Z,101393.00
2023-02-14T05:38:26.702Z,101380.00
2023-02-14T05:40:55.570Z,101388.00
2023-02-14T05:43:24.257Z,101398.00
2023-02-14T05:45:54.284Z,101404.00
2023-02-14T05:48:23.034Z,101419.00
2023-02-14T05:50:51.727Z,101410.00
2023-02-14T05:53:20.418Z,101414.00
2023-02-14T05:55:50.700Z,101428.00
2023-02-14T05:58:19.352Z,101429.00
2023-02-14T06:00:48.005Z,101446.00
2023-02-14T06:03:16.700Z,101451.00
2023-02-14T06:05:45.448Z,101471.00
2023-02-14T06:08:14.115Z,101478.00
2023-02-14T06:10:42.732Z,101463.00
2023-02-14T06:13:12.829Z,101481.00
2023-02-14T06:15:41.426Z,101502.00
2023-02-14T06:18:13.873Z,101504.00
2023-02-14T06:20:49.657Z,101497.00
2023-02-14T06:23:25.048Z,101514.00
2023-02-14T06:25:56.584Z,101525.00
2023-02-14T06:28:31.690Z,101527.00
2023-02-14T06:31:02.665Z,101521.00
2023-02-14T06:33:31.715Z,101523.00
2023-02-14T06:36:00.411Z,101528.00
2023-02-14T06:38:29.241Z,101540.00
2023-02-14T06:41:05.574Z,101506.00
2023-02-14T06:43:36.639Z,101558.00
2023-02-14T06:46:05.666Z,101563.00
2023-02-14T06:48:34.587Z,101563.00
2023-02-14T06:51:03.345Z,101569.00
2023-02-14T06:53:31.974Z,101568.00
2023-02-14T06:56:00.671Z,101578.00
2023-02-14T06:58:29.436Z,101565.00
2023-02-14T07:01:00.749Z,101568.00
2023-02-14T07:03:29.780Z,101582.00
2023-02-14T07:05:59.540Z,101572.00
2023-02-14T07:08:28.193Z,101575.00
2023-02-14T07:10:58.223Z,101600.00
2023-02-14T07:13:27.796Z,101603.00
2023-02-14T07:15:56.522Z,101609.00
2023-02-14T07:18:26.585Z,101630.00
2023-02-14T07:20:55.199Z,101627.00
2023-02-14T07:23:23.877Z,101623.00
2023-02-14T07:25:52.551Z,101628.00
2023-02-14T07:28:21.150Z,101634.00
2023-02-14T07:30:49.933Z,101632.00
2023-02-14T07:33:18.642Z,101650.00
2023-02-14T07:35:49.044Z,101648.00
2023-02-14T07:38:17.667Z,101648.00
2023-02-14T07:40:46.282Z,101645.00
2023-02-14T07:43:14.908Z,101649.00
2023-02-14T07:45:43.560Z,101653.00
2023-02-14T07:48:12.237Z,101664.00
2023-02-14T07:50:41.234Z,101678.00
2023-02-14T07:53:11.656Z,101672.00
2023-02-14T07:55:40.744Z,101690.00
2023-02-14T07:58:09.505Z,101708.00
2023-02-14T08:00:38.219Z,101708.00
2023-02-14T08:03:06.843Z,101701.00
2023-02-14T08:05:36.486Z,101711.00
2023-02-14T08:08:05.251Z,101710.00
2023-02-14T08:10:35.355Z,101719.00
2023-02-14T08:13:03.773Z,101724.00
2023-02-14T08:15:52.783Z,101713.00
2023-02-14T08:18:23.924Z,101760.00
2023-02-14T08:20:53.011Z,101748.00
2023-02-14T08:23:22.367Z,101740.00
2023-02-14T08:25:53.815Z,101745.00
2023-02-14T08:28:23.174Z,101738.00
2023-02-14T08:30:53.268Z,101754.00
2023-02-14T08:33:23.094Z,101754.00
2023-02-14T08:35:53.512Z,101772.00
2023-02-14T08:38:22.526Z,101752.00
2023-02-14T08:40:52.840Z,101756.00
2023-02-14T08:43:21.671Z,101762.00
2023-02-14T08:45:54.135Z,101775.00
2023-02-14T08:48:23.964Z,101784.00
2023-02-14T08:50:52.673Z,101787.00
2023-02-14T08:53:22.164Z,101809.00
2023-02-14T08:55:52.576Z,101791.00
2023-02-14T08:58:21.425Z,101808.00
2023-02-14T09:00:50.115Z,101809.00
2023-02-14T09:03:18.844Z,101807.00
2023-02-14T09:05:47.526Z,101819.00
2023-02-14T09:08:16.443Z,101820.00
2023-02-14T09:10:45.044Z,101824.00
2023-02-14T09:13:15.384Z,101833.00
2023-02-14T09:15:44.277Z,101837.00
2023-02-14T09:18:12.996Z,101836.00
2023-02-14T09:20:41.816Z,101838.00
2023-02-14T09:23:10.417Z,101833.00
2023-02-14T09:25:39.679Z,101836.00
2023-02-14T09:28:08.577Z,101836.00
2023-02-14T09:30:39.408Z,101830.00
2023-02-14T09:33:08.100Z,101840.00
2023-02-14T09:35:37.820Z,101848.00
2023-02-14T09:38:19.205Z,101862.00
2023-02-14T09:40:50.594Z,101872.00
2023-02-14T09:43:30.290Z,101880.00
2023-02-14T09:46:03.655Z,101874.00
2023-02-14T09:48:38.663Z,101871.00
2023-02-14T09:51:14.456Z,101893.00
2023-02-14T09:53:48.158Z,101882.00
2023-02-14T09:56:27.552Z,101885.00
2023-02-14T09:59:10.792Z,101900.00
2023-02-14T10:01:47.249Z,101901.00
2023-02-14T10:04:32.438Z,101889.00
2023-02-14T10:07:14.849Z,101915.00
2023-02-14T10:09:58.570Z,101915.00
2023-02-14T10:12:36.212Z,101906.00
2023-02-14T10:15:17.378Z,101916.00
2023-02-14T10:17:54.177Z,101920.00
2023-02-14T10:20:30.205Z,101920.00
2023-02-14T10:23:07.043Z,101936.00
2023-02-14T10:25:45.776Z,101933.00
2023-02-14T10:28:17.366Z,101931.00
2023-02-14T10:30:58.087Z,101944.00
2023-02-14T10:33:35.385Z,101936.00
2023-02-14T10:36:14.998Z,101951.00
2023-02-14T10:39:00.498Z,101972.00
2023-02-14T10:41:40.643Z,101955.00
2023-02-14T10:44:38.774Z,101952.00
2023-02-14T10:47:25.427Z,101949.00
2023-02-14T10:50:06.693Z,101969.00
2023-02-14T10:52:43.536Z,101963.00
2023-02-14T10:55:32.060Z,101961.00
2023-02-14T10:58:07.131Z,101961.00
2023-02-14T11:00:41.212Z,101965.00
2023-02-14T11:03:13.622Z,101974.00
2023-02-14T11:05:48.593Z,101992.00
2023-02-14T11:08:29.788Z,101970.00
2023-02-14T11:11:09.271Z,101984.00
2023-02-14T11:13:40.888Z,101980.00
2023-02-14T11:16:12.950Z,101981.00
2023-02-14T11:18:42.881Z,101979.00
2023-02-14T11:21:17.803Z,101974.00
2023-02-14T11:23:49.340Z,101985.00
2023-02-14T11:26:26.378Z,102000.00
2023-02-14T11:29:00.121Z,101993.00
2023-02-14T11:31:33.582Z,101994.00
2023-02-14T11:34:05.731Z,102002.00
2023-02-14T11:36:43.085Z,102003.00
2023-02-14T11:39:30.482Z,102005.00
2023-02-14T11:42:04.162Z,102002.00
2023-02-14T11:44:36.900Z,102006.00
2023-02-14T11:47:28.992Z,102011.00
2023-02-14T11:50:01.107Z,102017.00
2023-02-14T11:52:32.258Z,102003.00
2023-02-14T11:55:01.986Z,102011.00
2023-02-14T11:57:39.291Z,102015.00
2023-02-14T12:00:18.493Z,102015.00
2023-02-14T12:02:50.266Z,102021.00
2023-02-14T12:05:22.617Z,102031.00
2023-02-14T12:07:55.339Z,102030.00
2023-02-14T12:10:28.319Z,102037.00
2023-02-14T12:13:01.702Z,102038.00
2023-02-14T12:15:36.944Z,102042.00
2023-02-14T12:18:50.377Z,102054.00
2023-02-14T12:21:42.174Z,102052.00
2023-02-14T12:24:27.764Z,102047.00
2023-02-14T12:27:15.743Z,102046.00
2023-02-14T12:29:50.340Z,102056.00
2023-02-14T12:32:25.334Z,102061.00
2023-02-14T12:35:01.982Z,102071.00
2023-02-14T12:38:03.855Z,102068.00
2023-02-14T12:40:55.348Z,102060.00
2023-02-14T12:43:47.986Z,102072.00
2023-02-14T12:46:35.278Z,102067.00
2023-02-14T12:49:36.684Z,102071.00
2023-02-14T12:52:29.358Z,102079.00
2023-02-14T12:55:28.544Z,102075.00
2023-02-14T12:58:12.954Z,102079.00
2023-02-14T13:00:53.595Z,102090.00
2023-02-14T13:03:59.247Z,102100.00
2023-02-14T13:06:33.631Z,102098.00
2023-02-14T13:09:31.557Z,102114.00
2023-02-14T13:12:17.058Z,102109.00
2023-02-14T13:15:15.281Z,102106.00
2023-02-14T13:17:51.786Z,102107.00
2023-02-14T13:20:42.836Z,102115.00
2023-02-14T13:23:17.498Z,102116.00
2023-02-14T13:25:52.991Z,102115.00
2023-02-14T13:28:22.754Z,102117.00
2023-02-14T13:30:53.194Z,102117.00
2023-02-14T13:33:34.039Z,102130.00
2023-02-14T13:36:09.312Z,102113.00
2023-02-14T13:38:45.761Z,102117.00
2023-02-14T13:41:16.664Z,102130.00
2023-02-14T13:43:57.399Z,102138.00
2023-02-14T13:46:50.780Z,102148.00
2023-02-14T13:49:33.011Z,102145.00
2023-02-14T13:52:04.641Z,102140.00
2023-02-14T13:54:40.334Z,102145.00
2023-02-14T13:57:31.493Z,102145.00
2023-02-14T14:00:39.142Z,102150.00
2023-02-14T14:03:37.875Z,102146.00
2023-02-14T14:06:10.937Z,102147.00
2023-02-14T14:08:51.028Z,102147.00
2023-02-14T14:12:01.950Z,102147.00
2023-02-14T14:14:37.336Z,102153.00
2023-02-14T14:17:27.691Z,102142.00
2023-02-14T14:19:58.086Z,102142.00
2023-02-14T14:22:30.066Z,102150.00
2023-02-14T14:25:03.890Z,102156.00
2023-02-14T14:27:41.608Z,102150.00
2023-02-14T14:30:22.452Z,102153.00
2023-02-14T14:32:51.808Z,102153.00
2023-02-14T14:35:23.462Z,102138.00
2023-02-14T14:37:56.666Z,102138.00
2023-02-14T14:40:30.139Z,102150.00
2023-02-14T14:43:06.660Z,102145.00
2023-02-14T14:45:35.850Z,102149.00
2023-02-14T14:48:12.610Z,102157.00
2023-02-14T14:50:49.033Z,102157.00
2023-02-14T14:53:26.659Z,102162.00
2023-02-14T14:55:56.098Z,102156.00
2023-02-14T14:58:40.578Z,102161.00
2023-02-14T15:01:21.436Z,102158.00
2023-02-14T15:03:50.239Z,102157.00
2023-02-14T15:06:21.786Z,102157.00
2023-02-14T15:08:52.767Z,102159.00
2023-02-14T15:11:43.764Z,102165.00
2023-02-14T15:14:19.299Z,102165.00
2023-02-14T15:16:51.752Z,102159.00
2023-02-14T15:19:31.546Z,102164.00
2023-02-14T15:22:00.246Z,102162.00
2023-02-14T15:24:33.250Z,102158.00
2023-02-14T15:27:02.687Z,102157.00
2023-02-14T15:29:33.815Z,102160.00
2023-02-14T15:32:04.430Z,102165.00
2023-02-14T15:34:36.562Z,102165.00
2023-02-14T15:37:07.247Z,102169.00
2023-02-14T15:39:42.075Z,102164.00
2023-02-14T15:42:25.953Z,102169.00
2023-02-14T15:45:16.317Z,102162.00
2023-02-14T15:47:48.396Z,102162.00
2023-02-14T15:50:20.535Z,102160.00
2023-02-14T15:52:50.040Z,102167.00
2023-02-14T15:55:25.477Z,102163.00
2023-02-14T15:57:58.522Z,102172.00
2023-02-14T16:00:28.273Z,102165.00
2023-02-14T16:03:02.801Z,102168.00
2023-02-14T16:05:31.958Z,102163.00
2023-02-14T16:08:04.649Z,102170.00
2023-02-14T16:10:44.037Z,102168.00
2023-02-14T16:13:30.223Z,102168.00
2023-02-14T16:16:01.257Z,102169.00
2023-02-14T16:18:41.963Z,102178.00
2023-02-14T16:21:18.571Z,102158.00
2023-02-14T16:24:10.728Z,102161.00
2023-02-14T16:26:42.848Z,102152.00
2023-02-14T16:29:13.794Z,102162.00
2023-02-14T16:32:06.187Z,102166.00
2023-02-14T16:34:35.988Z,102170.00
2023-02-14T16:37:09.493Z,102170.00
2023-02-14T16:39:40.975Z,102182.00
2023-02-14T16:42:17.124Z,102184.00
2023-02-14T16:44:46.729Z,102191.00
2023-02-14T16:47:17.773Z,102187.00
2023-02-14T16:49:46.888Z,102192.00
2023-02-14T16:52:19.622Z,102190.00
2023-02-14T16:54:48.833Z,102195.00
2023-02-14T16:57:24.557Z,102192.00
2023-02-14T16:59:53.448Z,102193.00
2023-02-14T17:02:22.469Z,102193.00
2023-02-14T17:04:51.116Z,102202.00
2023-02-14T17:07:19.771Z,102199.00
2023-02-14T17:09:53.441Z,102200.00
2023-02-14T17:12:31.759Z,102199.00
2023-02-14T17:15:06.916Z,102204.00
2023-02-14T17:17:37.548Z,102204.00
2023-02-14T17:20:09.328Z,102201.00
2023-02-14T17:22:38.923Z,102212.00
2023-02-14T17:25:08.308Z,102203.00
2023-02-14T17:27:38.983Z,102206.00
2023-02-14T17:30:09.523Z,102207.00
2023-02-14T17:32:38.323Z,102210.00
2023-02-14T17:35:09.013Z,102203.00
2023-02-14T17:37:38.554Z,102202.00
2023-02-14T17:40:09.210Z,102200.00
2023-02-14T17:42:39.779Z,102184.00
2023-02-14T17:45:11.861Z,102193.00
2023-02-14T17:47:43.356Z,102186.00
2023-02-14T17:50:13.304Z,102197.00
2023-02-14T17:52:42.273Z,102191.00
2023-02-14T17:55:11.360Z,102190.00
2023-02-14T17:57:41.634Z,102185.00
2023-02-14T18:00:14.203Z,102185.00
2023-02-14T18:02:42.943Z,102189.00
2023-02-14T18:05:12.319Z,102186.00
2023-02-14T18:07:40.969Z,102191.00
2023-02-14T18:10:10.156Z,102185.00
2023-02-14T18:12:40.256Z,102173.00
2023-02-14T18:15:10.045Z,102174.00
2023-02-14T18:17:38.626Z,102181.00
2023-02-14T18:20:09.307Z,102174.00
2023-02-14T18:22:38.011Z,102178.00
2023-02-14T18:25:07.668Z,102175.00
2023-02-14T18:27:36.328Z,102177.00
2023-02-14T18:30:08.253Z,102183.00
2023-02-14T18:32:36.874Z,102176.00
2023-02-14T18:35:05.919Z,102184.00
2023-02-14T18:37:34.528Z,102197.00
2023-02-14T18:40:03.216Z,102196.00
2023-02-14T18:42:32.621Z,102199.00
2023-02-14T18:45:01.424Z,102197.00
2023-02-14T18:47:34.204Z,102192.00
2023-02-14T18:50:03.371Z,102191.00
2023-02-14T18:52:32.482Z,102206.00
2023-02-14T18:55:01.511Z,102204.00
2023-02-14T18:57:32.616Z,102198.00
2023-02-14T19:00:06.689Z,102193.00
2023-02-14T19:02:37.206Z,102204.00
2023-02-14T19:05:05.950Z,102193.00
2023-02-14T19:07:35.745Z,102191.00
2023-02-14T19:10:06.153Z,102199.00
2023-02-14T19:12:35.363Z,102193.00
2023-02-14T19:15:06.049Z,102198.00
2023-02-14T19:17:36.254Z,102200.00
2023-02-14T19:20:08.770Z,102187.00
2023-02-14T19:22:40.436Z,102202.00
2023-02-14T19:25:09.920Z,102202.00
2023-02-14T19:27:39.765Z,102198.00
2023-02-14T19:30:10.756Z,102202.00
2023-02-14T19:32:40.813Z,102200.00
2023-02-14T19:35:09.740Z,102204.00
2023-02-14T19:37:38.395Z,102194.00
2023-02-14T19:40:10.370Z,102203.00
2023-02-14T19:42:39.345Z,102190.00
2023-02-14T19:45:08.757Z,102191.00
2023-02-14T19:47:46.684Z,102184.00
2023-02-14T19:50:20.360Z,102193.00
2023-02-14T19:52:50.224Z,102198.00
2023-02-14T19:55:23.773Z,102199.00
2023-02-14T19:57:52.385Z,102195.00
2023-02-14T20:00:21.828Z,102189.00
2023-02-14T20:02:50.523Z,102198.00
2023-02-14T20:05:22.930Z,102191.00
2023-02-14T20:07:52.044Z,102195.00
2023-02-14T20:10:21.223Z,102199.00
2023-02-14T20:12:49.839Z,102203.00
2023-02-14T20:15:18.711Z,102205.00
2023-02-14T20:17:47.296Z,102200.00
2023-02-14T20:20:16.683Z,102188.00
2023-02-14T20:22:46.725Z,102192.00
2023-02-14T20:25:15.489Z,102183.00
2023-02-14T20:27:44.196Z,102193.00
2023-02-14T20:30:14.505Z,102191.00
2023-02-14T20:32:43.257Z,102197.00
2023-02-14T20:35:11.873Z,102209.00
2023-02-14T20:37:40.456Z,102198.00
2023-02-14T20:40:13.236Z,102205.00
2023-02-14T20:42:42.007Z,102200.00
2023-02-14T20:45:10.722Z,102203.00
2023-02-14T20:47:39.334Z,102198.00
2023-02-14T20:50:09.374Z,102198.00
2023-02-14T20:52:38.420Z,102194.00
2023-02-14T20:55:07.883Z,102200.00
2023-02-14T20:57:38.612Z,102201.00
2023-02-14T21:00:10.601Z,102197.00
2023-02-14T21:02:39.401Z,102200.00
2023-02-14T21:05:08.601Z,102188.00
2023-02-14T21:07:37.192Z,102188.00
2023-02-14T21:10:07.337Z,102188.00
2023-02-14T21:12:38.644Z,102188.00
2023-02-14T21:15:08.356Z,102174.00
2023-02-14T21:17:37.427Z,102182.00
2023-02-14T21:20:06.541Z,102183.00
2023-02-14T21:22:35.175Z,102183.00
2023-02-14T21:25:03.830Z,102190.00
2023-02-14T21:27:32.995Z,102194.00
2023-02-14T21:30:03.652Z,102191.00
2023-02-14T21:32:33.084Z,102191.00
2023-02-14T21:35:01.667Z,102193.00
2023-02-14T21:37:33.683Z,102190.00
2023-02-14T21:40:02.341Z,102187.00
2023-02-14T21:42:32.780Z,102178.00
2023-02-14T21:45:19.930Z,102177.00
2023-02-14T21:48:08.664Z,102186.00
2023-02-14T21:50:37.951Z,102176.00
2023-02-14T21:53:07.584Z,102188.00
2023-02-14T21:55:38.502Z,102169.00
2023-02-14T21:58:07.053Z,102179.00
2023-02-14T22:00:37.038Z,102186.00
2023-02-14T22:03:05.702Z,102187.00
2023-02-14T22:05:34.272Z,102191.00
2023-02-14T22:08:02.839Z,102190.00
2023-02-14T22:10:31.446Z,102192.00
2023-02-14T22:13:00.003Z,102185.00
2023-02-14T22:15:28.639Z,102183.00
2023-02-14T22:17:58.597Z,102176.00
2023-02-14T22:20:27.236Z,102173.00
2023-02-14T22:22:55.921Z,102169.00
2023-02-14T22:25:26.357Z,102179.00
2023-02-14T22:27:55.215Z,102176.00
2023-02-14T22:30:23.909Z,102186.00
2023-02-14T22:32:52.559Z,102179.00
2023-02-14T22:35:22.474Z,102171.00
2023-02-14T22:37:51.061Z,102174.00
2023-02-14T22:40:19.957Z,102174.00
2023-02-14T22:42:48.563Z,102173.00
2023-02-14T22:45:17.619Z,102177.00
2023-02-14T22:47:46.216Z,102172.00
2023-02-14T22:50:14.819Z,102175.00
2023-02-14T22:52:44.828Z,102183.00
2023-02-14T22:55:13.465Z,102178.00
2023-02-14T22:57:42.068Z,102187.00
2023-02-14T23:00:11.884Z,102180.00
2023-02-14T23:02:40.887Z,102184.00
2023-02-14T23:05:09.989Z,102188.00
2023-02-14T23:07:38.677Z,102178.00
2023-02-14T23:10:10.709Z,102181.00
2023-02-14T23:12:56.649Z,102187.00
2023-02-14T23:15:42.548Z,102184.00
2023-02-14T23:18:31.512Z,102179.00
2023-02-14T23:21:17.735Z,102183.00
2023-02-14T23:23:46.406Z,102174.00
2023-02-14T23:26:20.936Z,102177.00
2023-02-14T23:28:49.626Z,102170.00
2023-02-14T23:31:18.303Z,102170.00
2023-02-14T23:33:50.896Z,102171.00
2023-02-14T23:36:19.874Z,102169.00
2023-02-14T23:38:48.598Z,102169.00
2023-02-14T23:41:50.401Z,102168.00
2023-02-14T23:44:22.257Z,102166.00
2023-02-14T23:47:20.232Z,102166.00
2023-02-14T23:49:48.878Z,102161.00
2023-02-14T23:52:17.470Z,102165.00
2023-02-14T23:54:46.116Z,102170.00
2023-02-14T23:57:34.639Z,102160.00
